sensor_id;sensor_type;location;lat;lon;timestamp;P1;durP1;ratioP1;P2;durP2;ratioP2
1106;SDS011;540;49.448;8.612;2023-02-14T00:01:19;25.40;;;10.63;;
1106;SDS011;540;49.448;8.612;2023-02-14T00:03:47;24.80;;;9.98;;
1106;SDS011;540;49.448;8.612;2023-02-14T00:06:15;27.17;;;10.15;;
1106;SDS011;540;49.448;8.612;2023-02-14T00:08:43;24.85;;;10.68;;
1106;SDS011;540;49.448;8.612;2023-02-14T00:11:12;26.50;;;11.40;;
1106;SDS011;540;49.448;8.612;2023-02-14T00:13:40;29.00;;;12.70;;
1106;SDS011;540;49.448;8.612;2023-02-14T00:16:29;25.52;;;10.95;;
1106;SDS011;540;49.448;8.612;2023-02-14T00:18:56;20.60;;;9.60;;
1106;SDS011;540;49.448;8.612;2023-02-14T00:21:33;23.25;;;10.80;;
1106;SDS011;540;49.448;8.612;2023-02-14T00:24:02;27.38;;;9.88;;
1106;SDS011;540;49.448;8.612;2023-02-14T00:26:32;33.22;;;12.80;;
1106;SDS011;540;49.448;8.612;2023-02-14T00:28:59;23.33;;;11.27;;
1106;SDS011;540;49.448;8.612;2023-02-14T00:31:27;25.15;;;11.32;;
1106;SDS011;540;49.448;8.612;2023-02-14T00:33:55;32.28;;;12.02;;
1106;SDS011;540;49.448;8.612;2023-02-14T00:36:23;23.38;;;10.45;;
1106;SDS011;540;49.448;8.612;2023-02-14T00:38:51;31.40;;;12.15;;
1106;SDS011;540;49.448;8.612;2023-02-14T00:41:19;26.80;;;12.98;;
1106;SDS011;540;49.448;8.612;2023-02-14T00:43:48;27.95;;;13.20;;
1106;SDS011;540;49.448;8.612;2023-02-14T00:46:18;31.17;;;13.77;;
1106;SDS011;540;49.448;8.612;2023-02-14T00:48:47;30.73;;;12.23;;
1106;SDS011;540;49.448;8.612;2023-02-14T00:51:15;31.25;;;12.27;;
1106;SDS011;540;49.448;8.612;2023-02-14T00:53:44;35.30;;;13.43;;
1106;SDS011;540;49.448;8.612;2023-02-14T00:56:12;31.35;;;13.43;;
1106;SDS011;540;49.448;8.612;2023-02-14T00:58:40;23.48;;;10.93;;
1106;SDS011;540;49.448;8.612;2023-02-14T01:01:14;25.92;;;11.70;;
1106;SDS011;540;49.448;8.612;2023-02-14T01:03:42;26.92;;;10.15;;
1106;SDS011;540;49.448;8.612;2023-02-14T01:06:10;25.90;;;11.73;;
1106;SDS011;540;49.448;8.612;2023-02-14T01:08:38;27.17;;;11.20;;
1106;SDS011;540;49.448;8.612;2023-02-14T01:11:07;24.23;;;11.25;;
1106;SDS011;540;49.448;8.612;2023-02-14T01:13:36;23.67;;;11.38;;
1106;SDS011;540;49.448;8.612;2023-02-14T01:16:05;25.27;;;11.07;;
1106;SDS011;540;49.448;8.612;2023-02-14T01:18:54;23.45;;;11.75;;
1106;SDS011;540;49.448;8.612;2023-02-14T01:21:22;34.97;;;13.02;;
1106;SDS011;540;49.448;8.612;2023-02-14T01:23:53;26.60;;;10.70;;
1106;SDS011;540;49.448;8.612;2023-02-14T01:26:40;27.88;;;11.65;;
1106;SDS011;540;49.448;8.612;2023-02-14T01:29:25;25.88;;;10.57;;
1106;SDS011;540;49.448;8.612;2023-02-14T01:31:53;26.75;;;11.45;;
1106;SDS011;540;49.448;8.612;2023-02-14T01:34:22;25.15;;;11.80;;
1106;SDS011;540;49.448;8.612;2023-02-14T01:36:50;27.10;;;11.90;;
1106;SDS011;540;49.448;8.612;2023-02-14T01:39:18;26.80;;;12.38;;
1106;SDS011;540;49.448;8.612;2023-02-14T01:41:46;29.73;;;12.68;;
1106;SDS011;540;49.448;8.612;2023-02-14T01:47:32;26.23;;;11.98;;
1106;SDS011;540;49.448;8.612;2023-02-14T01:50:05;28.98;;;13.15;;
1106;SDS011;540;49.448;8.612;2023-02-14T01:52:36;30.02;;;12.38;;
1106;SDS011;540;49.448;8.612;2023-02-14T01:55:09;33.47;;;12.73;;
1106;SDS011;540;49.448;8.612;2023-02-14T01:57:42;30.67;;;13.10;;
1106;SDS011;540;49.448;8.612;2023-02-14T02:00:14;31.35;;;14.80;;
1106;SDS011;540;49.448;8.612;2023-02-14T02:05:31;35.50;;;15.70;;
1106;SDS011;540;49.448;8.612;2023-02-14T02:07:59;30.15;;;13.63;;
1106;SDS011;540;49.448;8.612;2023-02-14T02:10:27;26.75;;;11.38;;
1106;SDS011;540;49.448;8.612;2023-02-14T02:12:56;30.10;;;14.00;;
1106;SDS011;540;49.448;8.612;2023-02-14T02:15:29;26.60;;;12.52;;
1106;SDS011;540;49.448;8.612;2023-02-14T02:18:02;32.90;;;12.77;;
1106;SDS011;540;49.448;8.612;2023-02-14T02:20:52;35.50;;;13.73;;
1106;SDS011;540;49.448;8.612;2023-02-14T02:23:51;33.95;;;14.02;;
1106;SDS011;540;49.448;8.612;2023-02-14T02:29:48;37.15;;;13.43;;
1106;SDS011;540;49.448;8.612;2023-02-14T02:39:28;27.50;;;11.95;;
1106;SDS011;540;49.448;8.612;2023-02-14T02:42:05;32.22;;;12.55;;
1106;SDS011;540;49.448;8.612;2023-02-14T02:44:42;31.45;;;12.95;;
1106;SDS011;540;49.448;8.612;2023-02-14T02:47:20;33.80;;;14.38;;
1106;SDS011;540;49.448;8.612;2023-02-14T02:49:55;35.25;;;13.52;;
1106;SDS011;540;49.448;8.612;2023-02-14T02:52:49;29.25;;;12.27;;
1106;SDS011;540;49.448;8.612;2023-02-14T02:55:39;29.98;;;11.98;;
1106;SDS011;540;49.448;8.612;2023-02-14T02:58:28;33.05;;;13.93;;
1106;SDS011;540;49.448;8.612;2023-02-14T03:00:59;32.33;;;13.05;;
1106;SDS011;540;49.448;8.612;2023-02-14T03:03:33;31.35;;;13.25;;
1106;SDS011;540;49.448;8.612;2023-02-14T03:06:20;27.02;;;11.38;;
1106;SDS011;540;49.448;8.612;2023-02-14T03:08:49;34.03;;;12.85;;
1106;SDS011;540;49.448;8.612;2023-02-14T03:11:17;29.13;;;13.45;;
1106;SDS011;540;49.448;8.612;2023-02-14T03:13:52;27.58;;;13.63;;
1106;SDS011;540;49.448;8.612;2023-02-14T03:16:29;27.63;;;11.07;;
1106;SDS011;540;49.448;8.612;2023-02-14T03:19:20;36.80;;;13.17;;
1106;SDS011;540;49.448;8.612;2023-02-14T03:22:27;31.75;;;13.45;;
1106;SDS011;540;49.448;8.612;2023-02-14T03:25:06;27.73;;;13.00;;
1106;SDS011;540;49.448;8.612;2023-02-14T03:27:40;33.03;;;13.98;;
1106;SDS011;540;49.448;8.612;2023-02-14T03:30:13;30.55;;;13.55;;
1106;SDS011;540;49.448;8.612;2023-02-14T03:32:47;33.42;;;14.70;;
1106;SDS011;540;49.448;8.612;2023-02-14T03:35:20;32.65;;;13.60;;
1106;SDS011;540;49.448;8.612;2023-02-14T03:37:52;30.38;;;11.77;;
1106;SDS011;540;49.448;8.612;2023-02-14T03:40:29;29.63;;;12.38;;
1106;SDS011;540;49.448;8.612;2023-02-14T03:43:00;34.70;;;14.10;;
1106;SDS011;540;49.448;8.612;2023-02-14T03:45:34;37.10;;;13.38;;
1106;SDS011;540;49.448;8.612;2023-02-14T03:48:06;34.10;;;13.48;;
1106;SDS011;540;49.448;8.612;2023-02-14T03:50:37;31.27;;;13.10;;
1106;SDS011;540;49.448;8.612;2023-02-14T03:53:06;40.22;;;15.18;;
1106;SDS011;540;49.448;8.612;2023-02-14T03:55:39;32.22;;;13.55;;
1106;SDS011;540;49.448;8.612;2023-02-14T03:58:25;32.72;;;14.00;;
1106;SDS011;540;49.448;8.612;2023-02-14T04:00:58;30.23;;;11.52;;
1106;SDS011;540;49.448;8.612;2023-02-14T04:03:29;34.70;;;13.70;;
1106;SDS011;540;49.448;8.612;2023-02-14T04:05:59;34.50;;;14.25;;
1106;SDS011;540;49.448;8.612;2023-02-14T04:08:27;34.97;;;13.63;;
1106;SDS011;540;49.448;8.612;2023-02-14T04:10:57;32.65;;;14.13;;
1106;SDS011;540;49.448;8.612;2023-02-14T04:13:27;32.00;;;12.45;;
1106;SDS011;540;49.448;8.612;2023-02-14T04:15:55;35.22;;;14.27;;
1106;SDS011;540;49.448;8.612;2023-02-14T04:18:23;35.65;;;15.38;;
1106;SDS011;540;49.448;8.612;2023-02-14T04:21:09;39.00;;;13.27;;
1106;SDS011;540;49.448;8.612;2023-02-14T04:23:36;32.05;;;12.77;;
1106;SDS011;540;49.448;8.612;2023-02-14T04:26:06;36.83;;;15.57;;
1106;SDS011;540;49.448;8.612;2023-02-14T04:28:33;34.30;;;14.43;;
1106;SDS011;540;49.448;8.612;2023-02-14T04:31:01;32.55;;;13.00;;
1106;SDS011;540;49.448;8.612;2023-02-14T04:33:30;34.75;;;13.55;;
1106;SDS011;540;49.448;8.612;2023-02-14T04:35:59;33.10;;;14.63;;
1106;SDS011;540;49.448;8.612;2023-02-14T04:38:27;34.40;;;14.52;;
1106;SDS011;540;49.448;8.612;2023-02-14T04:40:55;33.90;;;13.23;;
1106;SDS011;540;49.448;8.612;2023-02-14T04:43:24;35.72;;;13.02;;
1106;SDS011;540;49.448;8.612;2023-02-14T04:45:52;31.67;;;12.77;;
1106;SDS011;540;49.448;8.612;2023-02-14T04:48:19;29.63;;;12.05;;
1106;SDS011;540;49.448;8.612;2023-02-14T04:50:49;30.80;;;13.80;;
1106;SDS011;540;49.448;8.612;2023-02-14T04:53:18;30.30;;;12.25;;
1106;SDS011;540;49.448;8.612;2023-02-14T04:55:47;33.08;;;14.88;;
1106;SDS011;540;49.448;8.612;2023-02-14T04:58:15;33.47;;;14.70;;
1106;SDS011;540;49.448;8.612;2023-02-14T05:00:45;33.10;;;13.45;;
1106;SDS011;540;49.448;8.612;2023-02-14T05:03:13;36.58;;;13.90;;
1106;SDS011;540;49.448;8.612;2023-02-14T05:05:40;31.42;;;12.30;;
1106;SDS011;540;49.448;8.612;2023-02-14T05:08:08;33.08;;;13.75;;
1106;SDS011;540;49.448;8.612;2023-02-14T05:10:36;32.17;;;13.43;;
1106;SDS011;540;49.448;8.612;2023-02-14T05:13:04;32.38;;;12.93;;
1106;SDS011;540;49.448;8.612;2023-02-14T05:15:31;32.35;;;14.10;;
1106;SDS011;540;49.448;8.612;2023-02-14T05:18:03;32.40;;;12.57;;
1106;SDS011;540;49.448;8.612;2023-02-14T05:20:31;32.55;;;13.75;;
1106;SDS011;540;49.448;8.612;2023-02-14T05:22:58;33.75;;;13.90;;
1106;SDS011;540;49.448;8.612;2023-02-14T05:25:28;34.70;;;15.63;;
1106;SDS011;540;49.448;8.612;2023-02-14T05:27:57;29.40;;;12.70;;
1106;SDS011;540;49.448;8.612;2023-02-14T05:30:24;35.15;;;11.73;;
1106;SDS011;540;49.448;8.612;2023-02-14T05:32:54;32.67;;;12.68;;
1106;SDS011;540;49.448;8.612;2023-02-14T05:35:23;36.63;;;13.73;;
1106;SDS011;540;49.448;8.612;2023-02-14T05:37:50;35.88;;;13.48;;
1106;SDS011;540;49.448;8.612;2023-02-14T05:40:18;33.80;;;13.48;;
1106;SDS011;540;49.448;8.612;2023-02-14T05:42:46;38.10;;;13.18;;
1106;SDS011;540;49.448;8.612;2023-02-14T05:45:14;31.50;;;12.90;;
1106;SDS011;540;49.448;8.612;2023-02-14T05:47:42;34.40;;;14.13;;
1106;SDS011;540;49.448;8.612;2023-02-14T05:50:10;41.17;;;16.50;;
1106;SDS011;540;49.448;8.612;2023-02-14T05:52:39;36.70;;;14.23;;
1106;SDS011;540;49.448;8.612;2023-02-14T05:55:07;41.40;;;16.65;;
1106;SDS011;540;49.448;8.612;2023-02-14T05:57:35;40.20;;;15.80;;
1106;SDS011;540;49.448;8.612;2023-02-14T06:00:04;42.90;;;16.05;;
1106;SDS011;540;49.448;8.612;2023-02-14T06:02:33;41.60;;;15.95;;
1106;SDS011;540;49.448;8.612;2023-02-14T06:05:00;54.20;;;17.70;;
1106;SDS011;540;49.448;8.612;2023-02-14T06:07:28;45.97;;;18.35;;
1106;SDS011;540;49.448;8.612;2023-02-14T06:09:57;62.50;;;23.58;;
1106;SDS011;540;49.448;8.612;2023-02-14T06:12:25;46.90;;;17.15;;
1106;SDS011;540;49.448;8.612;2023-02-14T06:14:53;38.70;;;15.35;;
1106;SDS011;540;49.448;8.612;2023-02-14T06:17:21;38.83;;;13.52;;
1106;SDS011;540;49.448;8.612;2023-02-14T06:19:48;38.67;;;16.77;;
1106;SDS011;540;49.448;8.612;2023-02-14T06:22:16;51.30;;;19.17;;
1106;SDS011;540;49.448;8.612;2023-02-14T06:24:44;45.42;;;17.23;;
1106;SDS011;540;49.448;8.612;2023-02-14T06:27:13;47.70;;;20.08;;
1106;SDS011;540;49.448;8.612;2023-02-14T06:29:41;35.45;;;14.88;;
1106;SDS011;540;49.448;8.612;2023-02-14T06:32:08;34.15;;;14.70;;
1106;SDS011;540;49.448;8.612;2023-02-14T06:34:36;37.67;;;14.52;;
1106;SDS011;540;49.448;8.612;2023-02-14T06:37:06;36.28;;;14.35;;
1106;SDS011;540;49.448;8.612;2023-02-14T06:39:33;35.13;;;14.65;;
1106;SDS011;540;49.448;8.612;2023-02-14T06:42:01;35.78;;;14.18;;
1106;SDS011;540;49.448;8.612;2023-02-14T06:44:30;36.67;;;14.63;;
1106;SDS011;540;49.448;8.612;2023-02-14T06:46:58;45.20;;;16.08;;
1106;SDS011;540;49.448;8.612;2023-02-14T06:49:26;38.63;;;16.55;;
1106;SDS011;540;49.448;8.612;2023-02-14T06:51:53;34.83;;;14.90;;
1106;SDS011;540;49.448;8.612;2023-02-14T06:54:21;39.63;;;15.65;;
1106;SDS011;540;49.448;8.612;2023-02-14T06:56:49;40.85;;;16.90;;
1106;SDS011;540;49.448;8.612;2023-02-14T06:59:17;37.70;;;15.40;;
1106;SDS011;540;49.448;8.612;2023-02-14T07:01:46;36.38;;;14.75;;
1106;SDS011;540;49.448;8.612;2023-02-14T07:04:14;40.90;;;16.40;;
1106;SDS011;540;49.448;8.612;2023-02-14T07:06:43;46.03;;;15.60;;
1106;SDS011;540;49.448;8.612;2023-02-14T07:09:11;31.83;;;13.93;;
1106;SDS011;540;49.448;8.612;2023-02-14T07:11:41;32.60;;;14.80;;
1106;SDS011;540;49.448;8.612;2023-02-14T07:14:09;33.00;;;15.65;;
1106;SDS011;540;49.448;8.612;2023-02-14T07:16:38;31.80;;;14.18;;
1106;SDS011;540;49.448;8.612;2023-02-14T07:19:07;39.40;;;15.75;;
1106;SDS011;540;49.448;8.612;2023-02-14T07:21:35;37.58;;;15.80;;
1106;SDS011;540;49.448;8.612;2023-02-14T07:24:03;51.00;;;21.90;;
1106;SDS011;540;49.448;8.612;2023-02-14T07:26:30;45.47;;;18.90;;
1106;SDS011;540;49.448;8.612;2023-02-14T07:28:58;33.83;;;15.95;;
1106;SDS011;540;49.448;8.612;2023-02-14T07:31:26;37.78;;;16.05;;
1106;SDS011;540;49.448;8.612;2023-02-14T07:33:54;39.38;;;17.30;;
1106;SDS011;540;49.448;8.612;2023-02-14T07:36:27;36.20;;;16.30;;
1106;SDS011;540;49.448;8.612;2023-02-14T07:38:55;35.83;;;15.18;;
1106;SDS011;540;49.448;8.612;2023-02-14T07:41:23;38.03;;;15.45;;
1106;SDS011;540;49.448;8.612;2023-02-14T07:43:51;36.67;;;15.82;;
1106;SDS011;540;49.448;8.612;2023-02-14T07:46:18;36.95;;;14.65;;
1106;SDS011;540;49.448;8.612;2023-02-14T07:48:46;33.50;;;14.02;;
1106;SDS011;540;49.448;8.612;2023-02-14T07:51:16;83.88;;;35.50;;
1106;SDS011;540;49.448;8.612;2023-02-14T07:53:45;36.45;;;15.70;;
1106;SDS011;540;49.448;8.612;2023-02-14T07:56:13;43.17;;;16.05;;
1106;SDS011;540;49.448;8.612;2023-02-14T07:58:41;31.30;;;13.80;;
1106;SDS011;540;49.448;8.612;2023-02-14T08:01:09;37.42;;;16.38;;
1106;SDS011;540;49.448;8.612;2023-02-14T08:03:37;38.22;;;16.23;;
1106;SDS011;540;49.448;8.612;2023-02-14T08:06:04;41.00;;;15.85;;
1106;SDS011;540;49.448;8.612;2023-02-14T08:08:32;38.63;;;16.02;;
1106;SDS011;540;49.448;8.612;2023-02-14T08:11:01;37.00;;;15.88;;
1106;SDS011;540;49.448;8.612;2023-02-14T08:13:29;45.15;;;17.25;;
1106;SDS011;540;49.448;8.612;2023-02-14T08:15:57;53.03;;;19.00;;
1106;SDS011;540;49.448;8.612;2023-02-14T08:18:33;49.53;;;18.25;;
1106;SDS011;540;49.448;8.612;2023-02-14T08:21:03;46.70;;;16.98;;
1106;SDS011;540;49.448;8.612;2023-02-14T08:23:31;46.90;;;16.95;;
1106;SDS011;540;49.448;8.612;2023-02-14T08:25:59;40.17;;;16.30;;
1106;SDS011;540;49.448;8.612;2023-02-14T08:28:28;38.03;;;15.70;;
1106;SDS011;540;49.448;8.612;2023-02-14T08:30:58;41.67;;;17.17;;
1106;SDS011;540;49.448;8.612;2023-02-14T08:33:26;39.63;;;15.43;;
1106;SDS011;540;49.448;8.612;2023-02-14T08:35:54;37.95;;;15.55;;
1106;SDS011;540;49.448;8.612;2023-02-14T08:38:22;37.60;;;16.25;;
1106;SDS011;540;49.448;8.612;2023-02-14T08:40:50;35.83;;;14.55;;
1106;SDS011;540;49.448;8.612;2023-02-14T08:43:19;40.53;;;15.38;;
1106;SDS011;540;49.448;8.612;2023-02-14T08:45:47;33.25;;;15.93;;
1106;SDS011;540;49.448;8.612;2023-02-14T08:48:19;39.30;;;16.20;;
1106;SDS011;540;49.448;8.612;2023-02-14T08:50:48;34.65;;;14.25;;
1106;SDS011;540;49.448;8.612;2023-02-14T08:53:16;36.35;;;14.38;;
1106;SDS011;540;49.448;8.612;2023-02-14T08:55:44;32.13;;;13.93;;
1106;SDS011;540;49.448;8.612;2023-02-14T08:58:12;31.38;;;14.50;;
1106;SDS011;540;49.448;8.612;2023-02-14T09:00:42;25.73;;;12.30;;
1106;SDS011;540;49.448;8.612;2023-02-14T09:03:12;33.25;;;12.88;;
1106;SDS011;540;49.448;8.612;2023-02-14T09:05:41;32.53;;;13.88;;
1106;SDS011;540;49.448;8.612;2023-02-14T09:08:11;33.67;;;14.93;;
1106;SDS011;540;49.448;8.612;2023-02-14T09:10:41;31.98;;;14.02;;
1106;SDS011;540;49.448;8.612;2023-02-14T09:13:11;35.83;;;14.68;;
1106;SDS011;540;49.448;8.612;2023-02-14T09:15:42;34.00;;;14.40;;
1106;SDS011;540;49.448;8.612;2023-02-14T09:18:12;37.85;;;14.85;;
1106;SDS011;540;49.448;8.612;2023-02-14T09:20:43;34.03;;;14.15;;
1106;SDS011;540;49.448;8.612;2023-02-14T09:23:12;38.33;;;14.52;;
1106;SDS011;540;49.448;8.612;2023-02-14T09:25:42;38.45;;;14.65;;
1106;SDS011;540;49.448;8.612;2023-02-14T09:28:12;31.15;;;14.00;;
1106;SDS011;540;49.448;8.612;2023-02-14T09:30:43;36.30;;;16.85;;
1106;SDS011;540;49.448;8.612;2023-02-14T09:33:13;37.00;;;16.17;;
1106;SDS011;540;49.448;8.612;2023-02-14T09:35:42;36.00;;;15.05;;
1106;SDS011;540;49.448;8.612;2023-02-14T09:38:29;29.35;;;13.60;;
1106;SDS011;540;49.448;8.612;2023-02-14T09:40:59;33.20;;;14.25;;
1106;SDS011;540;49.448;8.612;2023-02-14T09:43:35;34.28;;;13.98;;
1106;SDS011;540;49.448;8.612;2023-02-14T09:46:14;32.97;;;13.95;;
1106;SDS011;540;49.448;8.612;2023-02-14T09:48:47;30.17;;;13.52;;
1106;SDS011;540;49.448;8.612;2023-02-14T09:51:18;34.40;;;14.40;;
1106;SDS011;540;49.448;8.612;2023-02-14T09:53:51;31.45;;;14.02;;
1106;SDS011;540;49.448;8.612;2023-02-14T09:56:28;33.60;;;15.18;;
1106;SDS011;540;49.448;8.612;2023-02-14T09:59:16;68.63;;;31.05;;
1106;SDS011;540;49.448;8.612;2023-02-14T10:01:50;45.10;;;21.23;;
1106;SDS011;540;49.448;8.612;2023-02-14T10:04:24;42.08;;;19.10;;
1106;SDS011;540;49.448;8.612;2023-02-14T10:06:59;34.22;;;13.82;;
1106;SDS011;540;49.448;8.612;2023-02-14T10:09:42;38.75;;;15.25;;
1106;SDS011;540;49.448;8.612;2023-02-14T10:12:21;32.88;;;14.07;;
1106;SDS011;540;49.448;8.612;2023-02-14T10:14:52;34.47;;;14.35;;
1106;SDS011;540;49.448;8.612;2023-02-14T10:17:27;36.95;;;15.48;;
1106;SDS011;540;49.448;8.612;2023-02-14T10:20:03;32.50;;;14.50;;
1106;SDS011;540;49.448;8.612;2023-02-14T10:22:42;35.38;;;15.18;;
1106;SDS011;540;49.448;8.612;2023-02-14T10:25:13;37.65;;;16.40;;
1106;SDS011;540;49.448;8.612;2023-02-14T10:27:47;38.80;;;16.60;;
1106;SDS011;540;49.448;8.612;2023-02-14T10:30:15;37.83;;;16.15;;
1106;SDS011;540;49.448;8.612;2023-02-14T10:32:46;33.95;;;15.20;;
1106;SDS011;540;49.448;8.612;2023-02-14T10:35:20;33.35;;;15.30;;
1106;SDS011;540;49.448;8.612;2023-02-14T10:37:57;38.00;;;16.02;;
1106;SDS011;540;49.448;8.612;2023-02-14T10:40:39;38.65;;;16.55;;
1106;SDS011;540;49.448;8.612;2023-02-14T10:43:16;40.80;;;16.50;;
1106;SDS011;540;49.448;8.612;2023-02-14T10:45:51;40.20;;;17.00;;
1106;SDS011;540;49.448;8.612;2023-02-14T10:48:26;40.92;;;17.15;;
1106;SDS011;540;49.448;8.612;2023-02-14T10:51:03;40.95;;;17.27;;
1106;SDS011;540;49.448;8.612;2023-02-14T10:53:40;35.87;;;15.53;;
1106;SDS011;540;49.448;8.612;2023-02-14T10:56:20;42.35;;;17.75;;
1106;SDS011;540;49.448;8.612;2023-02-14T10:58:52;42.80;;;18.80;;
1106;SDS011;540;49.448;8.612;2023-02-14T11:01:22;45.30;;;18.17;;
1106;SDS011;540;49.448;8.612;2023-02-14T11:03:53;39.30;;;18.75;;
1106;SDS011;540;49.448;8.612;2023-02-14T11:06:28;39.45;;;16.65;;
1106;SDS011;540;49.448;8.612;2023-02-14T11:08:56;32.58;;;16.60;;
1106;SDS011;540;49.448;8.612;2023-02-14T11:11:26;36.88;;;16.88;;
1106;SDS011;540;49.448;8.612;2023-02-14T11:13:57;41.83;;;17.48;;
1106;SDS011;540;49.448;8.612;2023-02-14T11:16:28;37.33;;;16.58;;
1106;SDS011;540;49.448;8.612;2023-02-14T11:19:13;36.42;;;16.08;;
1106;SDS011;540;49.448;8.612;2023-02-14T11:21:47;47.22;;;20.88;;
1106;SDS011;540;49.448;8.612;2023-02-14T11:24:17;45.25;;;20.20;;
1106;SDS011;540;49.448;8.612;2023-02-14T11:26:51;51.53;;;21.05;;
1106;SDS011;540;49.448;8.612;2023-02-14T11:29:24;48.30;;;22.08;;
1106;SDS011;540;49.448;8.612;2023-02-14T11:31:54;45.80;;;21.17;;
1106;SDS011;540;49.448;8.612;2023-02-14T11:34:26;49.53;;;20.10;;
1106;SDS011;540;49.448;8.612;2023-02-14T11:37:01;50.92;;;20.17;;
1106;SDS011;540;49.448;8.612;2023-02-14T11:39:31;47.00;;;20.15;;
1106;SDS011;540;49.448;8.612;2023-02-14T11:42:01;46.05;;;18.95;;
1106;SDS011;540;49.448;8.612;2023-02-14T11:44:32;49.58;;;22.35;;
1106;SDS011;540;49.448;8.612;2023-02-14T11:47:18;46.80;;;21.23;;
1106;SDS011;540;49.448;8.612;2023-02-14T11:49:56;46.50;;;20.25;;
1106;SDS011;540;49.448;8.612;2023-02-14T11:52:26;44.33;;;20.58;;
1106;SDS011;540;49.448;8.612;2023-02-14T11:54:55;46.65;;;21.20;;
1106;SDS011;540;49.448;8.612;2023-02-14T11:57:25;49.40;;;20.80;;
1106;SDS011;540;49.448;8.612;2023-02-14T11:59:58;48.88;;;20.42;;
1106;SDS011;540;49.448;8.612;2023-02-14T12:02:30;45.67;;;19.70;;
1106;SDS011;540;49.448;8.612;2023-02-14T12:05:05;42.25;;;19.55;;
1106;SDS011;540;49.448;8.612;2023-02-14T12:07:42;46.40;;;20.85;;
1106;SDS011;540;49.448;8.612;2023-02-14T12:10:16;47.83;;;20.13;;
1106;SDS011;540;49.448;8.612;2023-02-14T12:12:47;42.58;;;18.38;;
1106;SDS011;540;49.448;8.612;2023-02-14T12:15:27;45.20;;;19.35;;
1106;SDS011;540;49.448;8.612;2023-02-14T12:24:14;46.50;;;18.20;;
1106;SDS011;540;49.448;8.612;2023-02-14T12:26:48;40.45;;;17.80;;
1106;SDS011;540;49.448;8.612;2023-02-14T12:29:23;46.78;;;20.52;;
1106;SDS011;540;49.448;8.612;2023-02-14T12:31:58;43.85;;;19.52;;
1106;SDS011;540;49.448;8.612;2023-02-14T12:34:28;44.03;;;17.70;;
1106;SDS011;540;49.448;8.612;2023-02-14T12:37:02;47.85;;;19.48;;
1106;SDS011;540;49.448;8.612;2023-02-14T12:39:47;48.60;;;19.98;;
1106;SDS011;540;49.448;8.612;2023-02-14T12:42:30;45.83;;;21.00;;
1106;SDS011;540;49.448;8.612;2023-02-14T12:45:11;42.97;;;19.75;;
1106;SDS011;540;49.448;8.612;2023-02-14T12:47:45;45.75;;;19.70;;
1106;SDS011;540;49.448;8.612;2023-02-14T12:50:28;42.75;;;21.02;;
1106;SDS011;540;49.448;8.612;2023-02-14T12:53:06;44.63;;;20.00;;
1106;SDS011;540;49.448;8.612;2023-02-14T12:55:58;49.60;;;20.95;;
1106;SDS011;540;49.448;8.612;2023-02-14T12:58:36;46.50;;;21.52;;
1106;SDS011;540;49.448;8.612;2023-02-14T13:01:20;43.63;;;19.58;;
1106;SDS011;540;49.448;8.612;2023-02-14T13:04:08;45.88;;;21.27;;
1106;SDS011;540;49.448;8.612;2023-02-14T13:06:47;44.55;;;21.45;;
1106;SDS011;540;49.448;8.612;2023-02-14T13:09:26;47.15;;;20.48;;
1106;SDS011;540;49.448;8.612;2023-02-14T13:12:05;40.38;;;19.30;;
1106;SDS011;540;49.448;8.612;2023-02-14T13:14:45;43.50;;;18.77;;
1106;SDS011;540;49.448;8.612;2023-02-14T13:17:24;43.55;;;18.90;;
1106;SDS011;540;49.448;8.612;2023-02-14T13:20:02;48.63;;;20.65;;
1106;SDS011;540;49.448;8.612;2023-02-14T13:22:38;50.15;;;22.05;;
1106;SDS011;540;49.448;8.612;2023-02-14T13:25:15;46.55;;;21.30;;
1106;SDS011;540;49.448;8.612;2023-02-14T13:27:56;56.03;;;22.23;;
1106;SDS011;540;49.448;8.612;2023-02-14T13:30:26;48.50;;;20.98;;
1106;SDS011;540;49.448;8.612;2023-02-14T13:32:57;46.50;;;20.52;;
1106;SDS011;540;49.448;8.612;2023-02-14T13:35:28;50.38;;;20.88;;
1106;SDS011;540;49.448;8.612;2023-02-14T13:37:58;46.20;;;20.65;;
1106;SDS011;540;49.448;8.612;2023-02-14T13:40:30;47.22;;;20.77;;
1106;SDS011;540;49.448;8.612;2023-02-14T13:43:01;47.28;;;20.30;;
1106;SDS011;540;49.448;8.612;2023-02-14T13:45:51;51.15;;;21.65;;
1106;SDS011;540;49.448;8.612;2023-02-14T13:48:20;44.35;;;19.90;;
1106;SDS011;540;49.448;8.612;2023-02-14T13:50:51;48.17;;;20.55;;
1106;SDS011;540;49.448;8.612;2023-02-14T13:53:32;44.72;;;20.77;;
1106;SDS011;540;49.448;8.612;2023-02-14T13:58:59;49.17;;;20.20;;
1106;SDS011;540;49.448;8.612;2023-02-14T14:01:31;49.90;;;21.73;;
1106;SDS011;540;49.448;8.612;2023-02-14T14:04:04;51.92;;;20.88;;
1106;SDS011;540;49.448;8.612;2023-02-14T14:09:53;51.95;;;21.65;;
1106;SDS011;540;49.448;8.612;2023-02-14T14:15:09;49.10;;;22.80;;
1106;SDS011;540;49.448;8.612;2023-02-14T14:17:42;59.13;;;24.92;;
1106;SDS011;540;49.448;8.612;2023-02-14T14:20:28;54.65;;;22.00;;
1106;SDS011;540;49.448;8.612;2023-02-14T14:23:30;58.78;;;23.33;;
1106;SDS011;540;49.448;8.612;2023-02-14T14:26:00;51.45;;;22.30;;
1106;SDS011;540;49.448;8.612;2023-02-14T14:28:30;55.53;;;23.80;;
1106;SDS011;540;49.448;8.612;2023-02-14T14:30:59;53.88;;;23.80;;
1106;SDS011;540;49.448;8.612;2023-02-14T14:33:27;51.70;;;23.98;;
1106;SDS011;540;49.448;8.612;2023-02-14T14:35:58;57.55;;;22.75;;
1106;SDS011;540;49.448;8.612;2023-02-14T14:38:31;54.90;;;23.67;;
1106;SDS011;540;49.448;8.612;2023-02-14T14:41:00;47.50;;;21.73;;
1106;SDS011;540;49.448;8.612;2023-02-14T14:43:30;47.08;;;23.05;;
1106;SDS011;540;49.448;8.612;2023-02-14T14:46:00;58.05;;;23.13;;
1106;SDS011;540;49.448;8.612;2023-02-14T14:48:30;50.20;;;21.58;;
1106;SDS011;540;49.448;8.612;2023-02-14T14:51:03;54.78;;;23.50;;
1106;SDS011;540;49.448;8.612;2023-02-14T14:53:34;51.22;;;21.33;;
1106;SDS011;540;49.448;8.612;2023-02-14T14:56:10;50.58;;;22.20;;
1106;SDS011;540;49.448;8.612;2023-02-14T14:58:40;63.92;;;24.45;;
1106;SDS011;540;49.448;8.612;2023-02-14T15:01:09;51.72;;;22.02;;
1106;SDS011;540;49.448;8.612;2023-02-14T15:03:46;50.53;;;22.27;;
1106;SDS011;540;49.448;8.612;2023-02-14T15:06:14;50.92;;;22.38;;
1106;SDS011;540;49.448;8.612;2023-02-14T15:08:44;55.70;;;23.65;;
1106;SDS011;540;49.448;8.612;2023-02-14T15:11:13;48.55;;;22.30;;
1106;SDS011;540;49.448;8.612;2023-02-14T15:14:08;48.10;;;21.77;;
1106;SDS011;540;49.448;8.612;2023-02-14T15:16:40;47.67;;;21.08;;
1106;SDS011;540;49.448;8.612;2023-02-14T15:19:15;49.03;;;21.60;;
1106;SDS011;540;49.448;8.612;2023-02-14T15:21:48;49.97;;;20.27;;
1106;SDS011;540;49.448;8.612;2023-02-14T15:24:16;49.47;;;22.80;;
1106;SDS011;540;49.448;8.612;2023-02-14T15:26:46;50.92;;;23.08;;
1106;SDS011;540;49.448;8.612;2023-02-14T15:29:20;50.00;;;21.50;;
1106;SDS011;540;49.448;8.612;2023-02-14T15:31:49;52.00;;;22.75;;
1106;SDS011;540;49.448;8.612;2023-02-14T15:34:18;52.58;;;22.08;;
1106;SDS011;540;49.448;8.612;2023-02-14T15:36:49;54.05;;;22.45;;
1106;SDS011;540;49.448;8.612;2023-02-14T15:39:19;56.20;;;22.13;;
1106;SDS011;540;49.448;8.612;2023-02-14T15:41:51;50.72;;;21.25;;
1106;SDS011;540;49.448;8.612;2023-02-14T15:44:22;52.80;;;21.95;;
1106;SDS011;540;49.448;8.612;2023-02-14T15:46:52;61.10;;;24.48;;
1106;SDS011;540;49.448;8.612;2023-02-14T15:49:23;56.67;;;22.85;;
1106;SDS011;540;49.448;8.612;2023-02-14T15:51:59;50.40;;;22.13;;
1106;SDS011;540;49.448;8.612;2023-02-14T15:54:30;56.65;;;24.70;;
1106;SDS011;540;49.448;8.612;2023-02-14T15:57:03;60.70;;;25.70;;
1106;SDS011;540;49.448;8.612;2023-02-14T15:59:33;55.00;;;25.35;;
1106;SDS011;540;49.448;8.612;2023-02-14T16:02:03;62.80;;;24.35;;
1106;SDS011;540;49.448;8.612;2023-02-14T16:04:46;63.25;;;27.30;;